Time;durP1;ratioP1;P1;durP2;ratioP2;P2;SDS_P1;SDS_P2;PMS_P1;PMS_P2;Temp;Humidity;BMP_temperature;BMP_pressure;BME280_temperature;BME280_humidity;BME280_pressure;Samples;Min_cycle;Max_cycle;Signal;HPM_P1;HPM_P2
2022/07/04 00:00:17;;;;;;;13.27;10.82;;;615.00;2432.00;;;;;;6246786;22;20353;-85
2022/07/04 00:02:43;;;;;;;13.52;11.18;;;640.20;2432.00;;;;;;6245311;23;20057;-85
2022/07/04 00:05:11;;;;;;;13.90;10.30;;;640.20;2432.00;;;;;;6244910;23;20145;-85
2022/07/04 00:07:40;;;;;;;12.25;10.75;;;640.20;2432.00;;;;;;6246359;23;20028;-84
2022/07/04 00:10:08;;;;;;;12.25;10.95;;;640.00;2432.00;;;;;;6246670;23;20008;-83
2022/07/04 00:12:34;;;;;;;12.57;10.98;;;640.00;2432.00;;;;;;6247182;23;20000;-84
2022/07/04 00:15:01;;;;;;;14.23;11.30;;;615.30;2432.00;;;;;;6246946;23;20058;-84
2022/07/04 00:17:27;;;;;;;14.30;10.20;;;615.30;2432.00;;;;;;6246993;23;20000;-85
2022/07/04 00:19:52;;;;;;;14.90;11.13;;;615.20;2432.00;;;;;;6246867;23;20548;-84
2022/07/04 00:22:18;;;;;;;14.80;9.32;;;615.00;2432.00;;;;;;6246819;23;20023;-84
2022/07/04 00:24:44;;;;;;;13.40;10.57;;;615.20;2432.00;;;;;;6246718;23;20086;-84
2022/07/04 00:27:10;;;;;;;14.68;10.80;;;615.20;2432.00;;;;;;6247265;23;20004;-84
2022/07/04 00:29:36;;;;;;;13.75;10.65;;;615.20;2432.00;;;;;;6246608;23;20377;-83
2022/07/04 00:32:02;;;;;;;14.30;10.70;;;615.20;2432.00;;;;;;6247019;23;20376;-85
2022/07/04 00:34:28;;;;;;;12.80;10.57;;;615.00;2432.00;;;;;;6246889;23;20004;-84
2022/07/04 00:36:54;;;;;;;14.80;11.32;;;615.10;2432.00;;;;;;6246438;23;20513;-84
2022/07/04 00:39:20;;;;;;;15.32;11.32;;;614.90;2432.00;;;;;;6246784;23;20000;-84
2022/07/04 00:41:46;;;;;;;16.00;10.73;;;615.00;2432.00;;;;;;6246825;23;20004;-85
2022/07/04 00:44:13;;;;;;;15.70;10.73;;;614.90;2432.00;;;;;;6246830;23;20004;-84
2022/07/04 00:46:40;;;;;;;12.73;11.35;;;615.10;2432.00;;;;;;6248472;22;20004;-84
2022/07/04 00:49:07;;;;;;;17.38;11.15;;;615.00;2432.00;;;;;;6246680;23;20000;-84
2022/07/04 00:51:33;;;;;;;12.18;10.95;;;615.00;2432.00;;;;;;6246424;23;20418;-85
2022/07/04 00:54:00;;;;;;;13.85;10.32;;;615.00;2432.00;;;;;;6246768;23;20003;-85
2022/07/04 00:56:27;;;;;;;15.27;11.40;;;615.00;2432.00;;;;;;6246518;23;20010;-84
2022/07/04 00:58:53;;;;;;;17.85;11.32;;;615.10;2432.00;;;;;;6246202;23;20438;-85
2022/07/04 01:01:20;;;;;;;12.27;10.90;;;614.90;2432.00;;;;;;6246598;23;20032;-85
2022/07/04 01:03:47;;;;;;;14.40;11.75;;;614.90;2432.00;;;;;;6246499;23;20414;-85
2022/07/04 01:06:15;;;;;;;14.48;11.07;;;614.80;2432.00;;;;;;6246048;23;20098;-85
2022/07/04 01:08:42;;;;;;;14.57;11.45;;;614.80;2432.00;;;;;;6246650;23;20330;-84
2022/07/04 01:11:09;;;;;;;13.75;11.10;;;614.80;2432.00;;;;;;6246373;23;20066;-85
2022/07/04 01:13:36;;;;;;;12.50;10.50;;;614.80;2432.00;;;;;;6246015;23;20436;-86
2022/07/04 01:16:03;;;;;;;16.35;11.77;;;614.70;2432.00;;;;;;6246306;23;20012;-85
2022/07/04 01:18:31;;;;;;;14.55;10.45;;;614.50;2432.00;;;;;;6245348;23;20365;-85
2022/07/04 01:20:57;;;;;;;14.38;11.57;;;614.50;2432.00;;;;;;6250577;23;20095;-84
2022/07/04 01:23:23;;;;;;;16.90;11.52;;;614.60;2432.00;;;;;;6256003;23;20012;-84
2022/07/04 01:25:50;;;;;;;12.68;11.07;;;614.50;2432.00;;;;;;6250433;23;20441;-85
2022/07/04 01:28:18;;;;;;;12.95;11.55;;;614.50;2432.00;;;;;;6246315;23;20422;-85
2022/07/04 01:30:43;;;;;;;13.80;10.82;;;614.50;2432.00;;;;;;6246403;23;19996;-85
2022/07/04 01:33:09;;;;;;;15.43;11.60;;;614.50;2432.00;;;;;;6245869;23;20012;-84
2022/07/04 01:35:35;;;;;;;14.18;10.70;;;614.50;2432.00;;;;;;6246045;23;20000;-83
2022/07/04 01:38:01;;;;;;;13.18;11.80;;;614.50;2432.00;;;;;;6255040;23;20003;-84
2022/07/04 01:40:27;;;;;;;13.55;11.30;;;589.70;2432.00;;;;;;6267020;23;20000;-84
2022/07/04 01:42:53;;;;;;;14.75;11.48;;;589.60;2432.00;;;;;;6261100;23;20322;-85
2022/07/04 01:45:19;;;;;;;12.70;10.73;;;589.60;2432.00;;;;;;6246046;23;20019;-84
2022/07/04 01:47:45;;;;;;;11.65;10.50;;;589.70;2432.00;;;;;;6245729;23;20386;-85
2022/07/04 01:50:14;;;;;;;14.50;11.68;;;614.50;2432.00;;;;;;6247739;22;20024;-85
2022/07/04 01:52:40;;;;;;;13.15;11.85;;;614.50;2432.00;;;;;;6246038;23;20105;-84
2022/07/04 01:55:08;;;;;;;16.40;11.15;;;614.60;2432.00;;;;;;6245495;23;20314;-85
2022/07/04 01:57:34;;;;;;;11.95;10.65;;;614.50;2432.00;;;;;;6245926;23;20426;-84
2022/07/04 02:02:44;;;;;;;12.68;10.90;;;614.60;2432.00;;;;;;6247114;23;20326;-85
2022/07/04 02:05:10;;;;;;;13.48;10.68;;;614.60;2432.00;;;;;;6245756;23;20008;-85
2022/07/04 02:07:36;;;;;;;12.05;10.50;;;614.40;2432.00;;;;;;6245602;23;20109;-84
2022/07/04 02:10:02;;;;;;;18.15;12.02;;;614.50;2432.00;;;;;;6245866;23;20034;-84
2022/07/04 02:15:12;;;;;;;12.05;10.75;;;614.40;2432.00;;;;;;6246791;23;20014;-85
2022/07/04 02:17:38;;;;;;;14.75;10.82;;;614.40;2432.00;;;;;;6245815;23;20005;-85
2022/07/04 02:20:06;;;;;;;18.35;11.88;;;589.70;2432.00;;;;;;6245923;23;20000;-84
2022/07/04 02:22:32;;;;;;;12.13;10.82;;;589.70;2432.00;;;;;;6244907;23;20012;-85
2022/07/04 02:24:58;;;;;;;15.07;11.70;;;589.70;2432.00;;;;;;6245605;23;20008;-83
2022/07/04 02:27:24;;;;;;;13.23;10.65;;;589.70;2432.00;;;;;;6245826;23;20010;-85
2022/07/04 02:29:50;;;;;;;14.07;11.48;;;589.60;2432.00;;;;;;6244851;23;20023;-84
2022/07/04 02:32:15;;;;;;;15.38;11.68;;;589.70;2432.00;;;;;;6245497;23;20027;-84
2022/07/04 02:34:41;;;;;;;14.35;12.40;;;589.70;2432.00;;;;;;6245662;23;20000;-84
2022/07/04 02:37:07;;;;;;;20.45;13.05;;;589.60;2432.00;;;;;;6245376;23;20001;-84
2022/07/04 02:39:33;;;;;;;13.10;11.80;;;589.60;2432.00;;;;;;6245442;23;20489;-84
2022/07/04 02:41:59;;;;;;;14.82;12.07;;;589.50;2432.00;;;;;;6245657;23;20000;-84
2022/07/04 02:44:25;;;;;;;15.07;11.95;;;589.40;2432.00;;;;;;6245055;23;20307;-85
2022/07/04 02:46:50;;;;;;;16.73;11.93;;;589.20;2432.00;;;;;;6245217;23;20000;-84
2022/07/04 02:49:16;;;;;;;16.50;12.48;;;589.20;2432.00;;;;;;6245698;23;20011;-84
2022/07/04 02:51:42;;;;;;;12.98;11.50;;;589.20;2432.00;;;;;;6244981;23;20000;-85
2022/07/04 02:54:08;;;;;;;12.48;11.30;;;589.30;2432.00;;;;;;6245431;23;20027;-85
2022/07/04 02:56:34;;;;;;;12.07;10.55;;;589.30;2432.00;;;;;;6245174;23;20011;-85
2022/07/04 02:59:00;;;;;;;13.23;11.07;;;589.30;2432.00;;;;;;6245526;23;20430;-85
2022/07/04 03:01:26;;;;;;;13.45;11.73;;;589.30;2432.00;;;;;;6245319;23;20039;-84
2022/07/04 03:03:51;;;;;;;14.60;10.85;;;589.20;2432.00;;;;;;6246687;22;20000;-85
2022/07/04 03:06:17;;;;;;;13.45;11.20;;;589.00;2432.00;;;;;;6245359;23;20315;-85
2022/07/04 03:08:43;;;;;;;13.52;11.82;;;588.80;2432.00;;;;;;6245258;23;20434;-85
2022/07/04 03:11:09;;;;;;;15.30;11.35;;;588.80;2432.00;;;;;;6244940;23;20000;-85
2022/07/04 03:13:36;;;;;;;15.77;11.48;;;588.90;2432.00;;;;;;6245625;23;20083;-85
2022/07/04 03:16:02;;;;;;;11.73;10.52;;;588.90;2432.00;;;;;;6245372;23;20004;-85
2022/07/04 03:18:28;;;;;;;11.93;10.60;;;589.00;2432.00;;;;;;6245113;23;20433;-85
2022/07/04 03:20:54;;;;;;;13.15;10.63;;;589.10;2432.00;;;;;;6245302;23;20432;-84
2022/07/04 03:23:20;;;;;;;16.73;11.25;;;589.10;2432.00;;;;;;6245231;23;20020;-84
2022/07/04 03:25:45;;;;;;;12.45;11.13;;;589.10;2432.00;;;;;;6245147;23;20015;-84
2022/07/04 03:28:11;;;;;;;13.68;12.23;;;589.00;2432.00;;;;;;6245202;23;20428;-85
2022/07/04 03:30:37;;;;;;;14.80;12.35;;;588.80;2432.00;;;;;;6245232;23;20000;-84
2022/07/04 03:33:03;;;;;;;14.90;11.02;;;588.90;2432.00;;;;;;6244993;23;20055;-84
2022/07/04 03:35:29;;;;;;;13.00;11.18;;;589.10;2432.00;;;;;;6245128;23;20007;-85
2022/07/04 03:37:55;;;;;;;13.77;10.95;;;589.10;2432.00;;;;;;6245200;23;20027;-85
2022/07/04 03:40:21;;;;;;;14.68;11.18;;;589.10;2432.00;;;;;;6245101;23;20000;-85
2022/07/04 03:42:48;;;;;;;14.45;10.85;;;589.00;2432.00;;;;;;6246330;23;20007;-85
2022/07/04 03:45:14;;;;;;;13.23;11.30;;;589.00;2432.00;;;;;;6246939;23;20008;-82
2022/07/04 03:47:40;;;;;;;13.43;11.50;;;588.90;2432.00;;;;;;6246846;23;20051;-83
2022/07/04 03:50:07;;;;;;;15.95;11.18;;;588.90;2432.00;;;;;;6247075;23;20354;-83
2022/07/04 03:52:33;;;;;;;14.10;11.00;;;589.10;2432.00;;;;;;6246626;23;20012;-85
2022/07/04 03:54:59;;;;;;;12.80;10.88;;;589.40;2432.00;;;;;;6247151;23;20009;-84
2022/07/04 03:57:25;;;;;;;20.40;11.18;;;589.20;2432.00;;;;;;6247377;23;20371;-85
2022/07/04 03:59:50;;;;;;;13.70;11.18;;;589.40;2432.00;;;;;;6247098;23;20444;-85
2022/07/04 04:02:16;;;;;;;11.55;10.35;;;589.30;2432.00;;;;;;6247255;23;20046;-84
2022/07/04 04:07:26;;;;;;;13.25;10.75;;;589.20;2432.00;;;;;;6248330;23;20472;-85
2022/07/04 04:09:52;;;;;;;15.32;10.48;;;589.20;2432.00;;;;;;6246848;23;20012;-84
2022/07/04 04:12:18;;;;;;;15.48;11.55;;;589.30;2432.00;;;;;;6248157;22;20386;-85
2022/07/04 04:14:44;;;;;;;15.15;11.75;;;589.20;2432.00;;;;;;6245246;23;20008;-84
2022/07/04 04:17:10;;;;;;;14.35;10.10;;;589.20;2432.00;;;;;;6247082;23;19997;-85
2022/07/04 04:19:36;;;;;;;14.68;11.85;;;589.20;2432.00;;;;;;6247019;23;20000;-85
2022/07/04 04:22:01;;;;;;;13.30;11.73;;;589.30;2432.00;;;;;;6246300;23;20103;-85
2022/07/04 04:24:27;;;;;;;19.10;11.60;;;589.20;2432.00;;;;;;6246867;23;19996;-84
2022/07/04 04:26:53;;;;;;;13.35;11.13;;;589.10;2432.00;;;;;;6248328;23;20027;-84
2022/07/04 04:29:19;;;;;;;14.60;11.63;;;588.90;2432.00;;;;;;6257276;22;19996;-82
2022/07/04 04:31:45;;;;;;;18.02;11.43;;;588.90;2432.00;;;;;;6253128;23;20004;-82
2022/07/04 04:34:11;;;;;;;16.02;11.88;;;589.00;2432.00;;;;;;6246731;23;20413;-82
2022/07/04 04:36:36;;;;;;;12.48;10.55;;;589.20;2432.00;;;;;;6246311;23;20011;-82
2022/07/04 04:39:02;;;;;;;16.45;13.27;;;589.40;2432.00;;;;;;6247985;22;20000;-82
2022/07/04 04:41:28;;;;;;;17.55;14.05;;;589.40;2432.00;;;;;;6246351;23;20500;-81
2022/07/04 04:43:54;;;;;;;26.00;14.52;;;589.50;2432.00;;;;;;6246453;23;20028;-83
2022/07/04 04:46:20;;;;;;;15.52;13.88;;;589.40;2432.00;;;;;;6246500;23;20090;-84
2022/07/04 04:48:46;;;;;;;14.10;12.55;;;589.40;2432.00;;;;;;6246097;23;19996;-83
2022/07/04 04:51:12;;;;;;;18.73;12.63;;;589.20;2432.00;;;;;;6246725;23;20011;-83
2022/07/04 04:53:38;;;;;;;15.02;12.20;;;589.30;2432.00;;;;;;6246504;23;19996;-83
2022/07/04 04:56:04;;;;;;;14.63;12.13;;;589.40;2432.00;;;;;;6246212;23;20000;-83
2022/07/04 04:58:30;;;;;;;15.55;12.70;;;589.30;2432.00;;;;;;6246421;23;20004;-83
2022/07/04 05:00:56;;;;;;;18.27;12.50;;;589.40;2432.00;;;;;;6246111;23;20357;-82
2022/07/04 05:03:21;;;;;;;15.60;12.20;;;589.40;2432.00;;;;;;6246197;23;20000;-83
2022/07/04 05:05:47;;;;;;;16.50;12.80;;;589.20;2432.00;;;;;;6246035;23;20012;-83
2022/07/04 05:08:13;;;;;;;15.45;11.70;;;589.20;2432.00;;;;;;6246370;23;20075;-83
2022/07/04 05:10:40;;;;;;;15.27;13.05;;;589.30;2432.00;;;;;;6247479;22;20004;-83
2022/07/04 05:13:06;;;;;;;18.52;11.90;;;614.40;2432.00;;;;;;6246365;23;20004;-82
2022/07/04 05:15:31;;;;;;;16.75;12.27;;;589.50;2432.00;;;;;;6246204;23;20393;-83
2022/07/04 05:17:57;;;;;;;17.30;12.88;;;589.60;2432.00;;;;;;6245797;23;20043;-83
2022/07/04 05:20:23;;;;;;;18.75;13.35;;;589.70;2432.00;;;;;;6245973;23;20000;-82
2022/07/04 05:22:49;;;;;;;17.20;12.45;;;589.70;2432.00;;;;;;6247323;23;20435;-81
2022/07/04 05:25:15;;;;;;;17.30;13.73;;;589.70;2432.00;;;;;;6247212;22;20008;-84
2022/07/04 05:27:41;;;;;;;18.27;13.43;;;614.40;2432.00;;;;;;6246018;23;20418;-84
2022/07/04 05:30:07;;;;;;;16.63;12.75;;;614.50;2432.00;;;;;;6245921;23;20414;-83
2022/07/04 05:32:33;;;;;;;15.77;13.00;;;614.50;2432.00;;;;;;6245027;23;20000;-83
2022/07/04 05:34:59;;;;;;;19.30;12.57;;;614.50;2432.00;;;;;;6245996;23;20011;-84
2022/07/04 05:37:25;;;;;;;15.40;12.75;;;614.40;2432.00;;;;;;6245845;23;20000;-83
2022/07/04 05:39:51;;;;;;;16.27;13.52;;;614.40;2432.00;;;;;;6245526;23;20008;-84
2022/07/04 05:42:17;;;;;;;15.15;13.55;;;614.40;2432.00;;;;;;6247607;22;20426;-83
2022/07/04 05:44:43;;;;;;;19.60;14.40;;;614.50;2432.00;;;;;;6244940;23;20079;-83
2022/07/04 05:47:09;;;;;;;17.20;13.27;;;614.50;2432.00;;;;;;6247377;22;19996;-84
2022/07/04 05:49:35;;;;;;;20.05;13.00;;;614.50;2432.00;;;;;;6247176;23;19997;-83
2022/07/04 05:52:01;;;;;;;17.77;12.48;;;614.70;2432.00;;;;;;6245408;23;20010;-82
2022/07/04 05:54:28;;;;;;;17.02;12.60;;;614.80;2432.00;;;;;;6247763;23;20007;-86
2022/07/04 05:56:53;;;;;;;19.38;12.57;;;614.80;2432.00;;;;;;6247879;23;20496;-84
2022/07/04 05:59:19;;;;;;;15.00;12.38;;;615.10;2432.00;;;;;;6249160;22;19992;-83
2022/07/04 06:01:45;;;;;;;15.50;12.43;;;615.20;2432.00;;;;;;6246917;23;19997;-85
2022/07/04 06:04:11;;;;;;;14.75;12.38;;;615.00;2432.00;;;;;;6246755;23;20087;-84
2022/07/04 06:06:37;;;;;;;15.15;12.13;;;640.00;2432.00;;;;;;6247205;22;20097;-84
2022/07/04 06:09:03;;;;;;;16.20;12.00;;;640.00;2432.00;;;;;;6246625;23;20000;-85
2022/07/04 06:11:30;;;;;;;19.85;12.20;;;640.00;2432.00;;;;;;6246764;23;20079;-83
2022/07/04 06:13:56;;;;;;;14.45;11.52;;;640.20;2432.00;;;;;;6246090;23;20019;-86
2022/07/04 06:16:21;;;;;;;16.42;12.20;;;640.40;2432.00;;;;;;6247242;23;20004;-84
2022/07/04 06:18:47;;;;;;;17.05;11.55;;;640.40;2432.00;;;;;;6246423;23;20069;-83
2022/07/04 06:21:13;;;;;;;18.73;12.80;;;640.50;2432.00;;;;;;6245742;23;19997;-82
2022/07/04 06:23:39;;;;;;;17.58;11.43;;;640.60;2432.00;;;;;;6245762;23;20362;-81
2022/07/04 06:26:05;;;;;;;15.88;11.18;;;640.70;2432.00;;;;;;6245506;23;20047;-82
2022/07/04 06:28:31;;;;;;;18.85;11.23;;;640.70;2432.00;;;;;;6245225;23;20434;-81
2022/07/04 06:30:57;;;;;;;14.18;11.40;;;640.90;2432.00;;;;;;6245649;23;20300;-82
2022/07/04 06:33:23;;;;;;;14.68;11.63;;;640.90;2432.00;;;;;;6245508;23;19996;-82
2022/07/04 06:35:54;;;;;;;18.45;12.20;;;665.70;2432.00;;;;;;6245102;23;20015;-82
2022/07/04 06:38:28;;;;;;;12.60;11.30;;;665.70;2432.00;;;;;;6259897;23;20039;-81
2022/07/04 06:40:58;;;;;;;18.20;12.02;;;665.90;2432.00;;;;;;6265914;23;20036;-79
2022/07/04 06:43:25;;;;;;;11.52;10.32;;;666.00;2432.00;;;;;;6252537;23;20357;-82
2022/07/04 06:45:52;;;;;;;18.88;11.40;;;666.20;2432.00;;;;;;6244800;23;20008;-82
2022/07/04 06:48:19;;;;;;;14.32;11.30;;;666.30;2432.00;;;;;;6246585;22;19992;-82
2022/07/04 06:50:45;;;;;;;14.88;10.45;;;666.30;2432.00;;;;;;6245370;23;20011;-82
2022/07/04 06:53:11;;;;;;;14.43;10.63;;;666.50;2432.00;;;;;;6245351;23;20008;-82
2022/07/04 06:55:42;;;;;;;13.77;10.40;;;691.40;2432.00;;;;;;6244826;23;20426;-82
2022/07/04 06:58:08;;;;;;;12.43;10.55;;;691.40;2432.00;;;;;;6245407;23;20012;-82
2022/07/04 07:00:35;;;;;;;18.83;10.55;;;691.50;2432.00;;;;;;6245317;23;20007;-82
2022/07/04 07:03:03;;;;;;;11.73;10.52;;;691.70;2432.00;;;;;;6244959;23;20015;-82
2022/07/04 07:05:29;;;;;;;12.68;10.20;;;691.90;2432.00;;;;;;6245167;23;20012;-82
2022/07/04 07:07:55;;;;;;;14.10;10.00;;;692.00;2432.00;;;;;;6245391;23;20005;-82
2022/07/04 07:10:21;;;;;;;12.25;9.85;;;692.10;2432.00;;;;;;6244731;23;20004;-82
2022/07/04 07:12:47;;;;;;;12.27;10.60;;;716.80;2432.00;;;;;;6245280;23;20035;-81
2022/07/04 07:15:13;;;;;;;14.00;9.93;;;716.90;2432.00;;;;;;6245075;23;20438;-81
2022/07/04 07:17:40;;;;;;;10.35;9.10;;;717.00;2432.00;;;;;;6246098;23;20000;-82
2022/07/04 07:20:07;;;;;;;10.45;9.13;;;717.10;2432.00;;;;;;6247454;23;20004;-82
2022/07/04 07:22:32;;;;;;;13.85;9.50;;;717.30;2432.00;;;;;;6246578;23;20016;-81
2022/07/04 07:24:58;;;;;;;12.88;9.93;;;717.40;2432.00;;;;;;6247177;23;20012;-81
2022/07/04 07:27:24;;;;;;;15.57;9.60;;;717.40;2432.00;;;;;;6246765;23;19996;-82
2022/07/04 07:29:50;;;;;;;16.17;8.98;;;717.60;2432.00;;;;;;6246537;23;20004;-81
2022/07/04 07:32:17;;;;;;;10.82;9.55;;;717.70;2432.00;;;;;;6247001;23;20000;-82
2022/07/04 07:34:43;;;;;;;11.70;9.73;;;717.70;2432.00;;;;;;6247076;23;20083;-83
2022/07/04 07:37:09;;;;;;;11.35;8.48;;;742.50;2432.00;;;;;;6247880;23;20089;-84
2022/07/04 07:39:35;;;;;;;11.77;9.57;;;742.50;2432.00;;;;;;6250096;23;20000;-84
2022/07/04 07:42:01;;;;;;;11.73;8.85;;;742.50;2432.00;;;;;;6248320;23;20004;-85
2022/07/04 07:44:26;;;;;;;16.33;10.05;;;742.60;2432.00;;;;;;6246555;23;20007;-83
2022/07/04 07:46:52;;;;;;;10.63;9.43;;;742.60;2432.00;;;;;;6246447;23;20019;-84
2022/07/04 07:49:18;;;;;;;10.73;9.23;;;742.90;2432.00;;;;;;6248657;22;20007;-85
2022/07/04 07:51:44;;;;;;;13.23;8.93;;;743.00;2432.00;;;;;;6248118;22;20000;-85
2022/07/04 07:54:10;;;;;;;10.73;9.25;;;743.00;2432.00;;;;;;6247079;23;20411;-83
2022/07/04 07:56:36;;;;;;;12.90;9.82;;;743.10;2432.00;;;;;;6248347;23;20027;-85
2022/07/04 07:59:01;;;;;;;11.55;8.68;;;743.20;2432.00;;;;;;6246548;23;20004;-84
2022/07/04 08:01:27;;;;;;;13.80;9.10;;;743.30;2432.00;;;;;;6248713;22;20019;-86
2022/07/04 08:06:37;;;;;;;13.13;8.90;;;743.30;2432.00;;;;;;6247984;23;20058;-86
2022/07/04 08:09:03;;;;;;;14.20;9.25;;;768.10;2432.00;;;;;;6247125;23;20004;-85
2022/07/04 08:11:29;;;;;;;13.55;9.27;;;768.20;2432.00;;;;;;6247077;23;20441;-88
2022/07/04 08:13:55;;;;;;;10.40;9.05;;;768.30;2432.00;;;;;;6247134;23;20007;-85
2022/07/04 08:16:21;;;;;;;11.05;8.52;;;768.30;2432.00;;;;;;6246975;23;20012;-86
2022/07/04 08:18:47;;;;;;;14.80;8.98;;;768.60;2432.00;;;;;;6246688;23;20027;-87
2022/07/04 08:21:16;;;;;;;16.83;9.65;;;768.80;2432.00;;;;;;6246721;23;20008;-84
2022/07/04 08:23:42;;;;;;;10.43;9.43;;;768.80;2432.00;;;;;;6247066;23;20359;-86
2022/07/04 08:26:08;;;;;;;11.15;9.35;;;793.60;2432.00;;;;;;6246610;23;20091;-84
2022/07/04 08:28:34;;;;;;;14.68;10.30;;;793.70;2432.00;;;;;;6246562;23;20028;-83
2022/07/04 08:31:00;;;;;;;11.18;9.57;;;794.00;2432.00;;;;;;6246754;23;19996;-84
2022/07/04 08:33:26;;;;;;;15.52;9.05;;;793.80;2432.00;;;;;;6246606;23;20012;-84
2022/07/04 08:35:53;;;;;;;9.48;8.57;;;794.00;2432.00;;;;;;6246807;23;20004;-85
2022/07/04 08:38:19;;;;;;;14.43;9.65;;;793.90;2432.00;;;;;;6246583;23;20019;-82
2022/07/04 08:40:47;;;;;;;11.27;9.77;;;794.30;2432.00;;;;;;6246449;23;20012;-82
2022/07/04 08:43:14;;;;;;;9.15;8.35;;;794.50;2432.00;;;;;;6246754;23;20004;-82
2022/07/04 08:45:40;;;;;;;11.50;8.10;;;819.20;2432.00;;;;;;6246538;23;20016;-82
2022/07/04 08:48:08;;;;;;;14.35;8.60;;;819.20;2380.80;;;;;;6246516;23;20079;-81
2022/07/04 08:50:51;;;;;;;10.88;9.48;;;819.30;2355.20;;;;;;6246678;23;20004;-82
2022/07/04 08:53:21;;;;;;;14.35;10.00;;;794.40;2380.80;;;;;;6246607;23;20001;-83
2022/07/04 08:58:33;;;;;;;11.23;9.52;;;819.60;2355.20;;;;;;6247812;23;20091;-84
2022/07/04 09:01:16;;;;;;;13.63;10.98;;;819.70;2304.00;;;;;;6246814;23;20112;-86
2022/07/04 09:03:43;;;;;;;13.25;8.65;;;820.00;2304.00;;;;;;6246773;23;20042;-84
2022/07/04 09:06:11;;;;;;;10.52;9.15;;;844.90;2278.40;;;;;;6246493;23;20013;-81
2022/07/04 09:08:38;;;;;;;16.20;10.68;;;845.20;2278.40;;;;;;6246013;23;20003;-79
2022/07/04 09:11:07;;;;;;;14.30;10.35;;;;;;;;;;6245416;23;20418;-84
2022/07/04 09:13:34;;;;;;;11.05;8.45;;;845.60;2201.60;;;;;;6246669;23;20373;-83
2022/07/04 09:16:01;;;;;;;14.13;9.48;;;845.20;2176.00;;;;;;6246667;23;20004;-84
2022/07/04 09:18:32;;;;;;;10.30;8.57;;;845.70;2176.00;;;;;;6246728;23;20000;-85
2022/07/04 09:21:00;;;;;;;11.27;9.00;;;845.50;2150.40;;;;;;6246797;23;20322;-86
2022/07/04 09:23:32;;;;;;;11.95;9.50;;;845.40;2150.40;;;;;;6246565;23;20016;-83
2022/07/04 09:26:14;;;;;;;10.07;8.90;;;845.70;2150.40;;;;;;6246173;23;20430;-84
2022/07/04 09:28:52;;;;;;;10.05;8.43;;;845.70;2099.20;;;;;;6246504;23;20004;-86
2022/07/04 09:31:20;;;;;;;12.13;8.70;;;845.50;2099.20;;;;;;6245575;23;20000;-84
2022/07/04 09:33:49;;;;;;;14.05;8.23;;;845.50;2099.20;;;;;;6246613;23;20309;-85
2022/07/04 09:36:17;;;;;;;8.82;8.00;;;845.70;2099.20;;;;;;6246272;23;20326;-84
2022/07/04 09:38:44;;;;;;;9.35;8.32;;;870.60;2073.60;;;;;;6246621;23;20078;-84
2022/07/04 09:41:24;;;;;;;10.57;9.57;;;870.50;2048.00;;;;;;6246130;23;20440;-84
2022/07/04 09:44:06;;;;;;;12.25;10.95;;;871.00;2048.00;;;;;;6246526;23;20004;-84
2022/07/04 09:46:34;;;;;;;13.18;11.77;;;871.10;1996.80;;;;;;6246262;23;20012;-87
2022/07/04 09:49:00;;;;;;;13.35;12.02;;;871.30;1945.60;;;;;;6246351;23;20018;-84
2022/07/04 09:51:55;;;;;;;12.32;8.73;;;871.30;1920.00;;;;;;6246002;23;20031;-84
2022/07/04 09:54:25;;;;;;;15.18;12.40;;;871.30;1894.40;;;;;;6214311;23;20102;-85
2022/07/04 09:56:56;;;;;;;12.13;10.15;;;871.10;1894.40;;;;;;6246564;23;20063;-85
2022/07/04 09:59:23;;;;;;;9.75;7.40;;;896.00;1920.00;;;;;;6246461;23;20000;-86
2022/07/04 10:01:50;;;;;;;12.50;9.93;;;896.10;1868.80;;;;;;6245097;23;20004;-85
2022/07/04 10:04:16;;;;;;;12.65;11.35;;;896.40;1894.40;;;;;;6246131;23;20000;-85
2022/07/04 10:06:46;;;;;;;13.93;10.15;;;921.60;1868.80;;;;;;6244485;23;20070;-86
2022/07/04 10:09:17;;;;;;;11.02;8.68;;;921.60;1843.20;;;;;;6245074;23;20000;-86
2022/07/04 10:11:46;;;;;;;8.20;7.35;;;896.80;1792.00;;;;;;6246486;23;20000;-86
2022/07/04 10:14:14;;;;;;;10.82;7.80;;;896.90;1792.00;;;;;;6245954;23;20008;-86
2022/07/04 10:16:41;;;;;;;12.50;8.15;;;896.40;1817.60;;;;;;6246306;23;20008;-84
2022/07/04 10:19:08;;;;;;;9.82;7.55;;;896.90;1792.00;;;;;;6245818;23;20035;-86
2022/07/04 10:21:34;;;;;;;13.15;9.80;;;896.90;1766.40;;;;;;6245559;23;20016;-85
2022/07/04 10:24:03;;;;;;;13.82;8.75;;;921.80;1817.60;;;;;;6246044;23;20011;-86
2022/07/04 10:26:29;;;;;;;10.88;8.80;;;922.10;1792.00;;;;;;6245602;23;20008;-85
2022/07/04 10:28:56;;;;;;;9.10;7.18;;;922.30;1740.80;;;;;;6245534;23;20087;-84
2022/07/04 10:31:25;;;;;;;10.82;8.07;;;922.20;1766.40;;;;;;6245296;23;20086;-85
2022/07/04 10:33:52;;;;;;;8.93;6.93;;;922.00;1766.40;;;;;;6245278;23;20023;-84
2022/07/04 10:36:20;;;;;;;10.32;7.05;;;896.90;1766.40;;;;;;6246562;23;20083;-85
2022/07/04 10:38:49;;;;;;;13.05;8.85;;;921.60;1766.40;;;;;;6247436;23;20000;-84
2022/07/04 10:41:15;;;;;;;15.13;12.35;;;922.00;1766.40;;;;;;6270358;22;20001;-82
2022/07/04 10:44:05;;;;;;;11.25;9.63;;;922.30;1740.80;;;;;;6264242;23;20011;-87
2022/07/04 10:46:33;;;;;;;15.73;9.73;;;947.20;1715.20;;;;;;6245396;23;20012;-83
2022/07/04 10:49:00;;;;;;;27.35;10.20;;;947.20;1715.20;;;;;;6245406;23;20015;-83
2022/07/04 10:51:41;;;;;;;13.15;7.18;;;947.40;1740.80;;;;;;6245162;23;19996;-84
2022/07/04 10:54:12;;;;;;;10.77;7.53;;;947.20;1664.00;;;;;;6245412;23;19996;-88
2022/07/04 10:56:45;;;;;;;16.77;8.50;;;921.90;1715.20;;;;;;6244394;23;20020;-87
2022/07/04 10:59:14;;;;;;;11.95;8.00;;;921.80;1792.00;;;;;;6245395;23;20035;-85
2022/07/04 11:01:52;;;;;;;10.57;8.52;;;922.10;1766.40;;;;;;6245095;23;20004;-87
2022/07/04 11:04:53;;;;;;;11.15;7.35;;;922.10;1740.80;;;;;;6244957;23;20374;-87
2022/07/04 11:07:23;;;;;;;13.93;9.30;;;922.20;1689.60;;;;;;6244997;23;20008;-83
2022/07/04 11:10:11;;;;;;;12.73;8.07;;;921.60;1715.20;;;;;;6245215;23;20027;-85
2022/07/04 11:12:55;;;;;;;14.93;9.35;;;921.60;1689.60;;;;;;6245285;23;20489;-84
2022/07/04 11:15:27;;;;;;;8.25;6.97;;;921.70;1740.80;;;;;;6245252;23;20004;-83
2022/07/04 11:17:55;;;;;;;9.32;7.63;;;922.00;1664.00;;;;;;6246850;23;20022;-82
2022/07/04 11:20:22;;;;;;;10.23;8.38;;;922.20;1664.00;;;;;;6255382;23;19996;-84
2022/07/04 11:22:48;;;;;;;15.40;8.93;;;921.80;1740.80;;;;;;6245129;23;20020;-82
2022/07/04 11:25:15;;;;;;;11.40;8.85;;;921.70;1715.20;;;;;;6244751;23;20673;-82
2022/07/04 11:27:42;;;;;;;11.40;9.82;;;922.10;1715.20;;;;;;6244983;23;20023;-83
2022/07/04 11:30:09;;;;;;;20.63;12.57;;;922.30;1689.60;;;;;;6245252;23;20007;-84
2022/07/04 11:32:37;;;;;;;10.02;8.38;;;947.30;1689.60;;;;;;6244764;23;20007;-85
2022/07/04 11:35:07;;;;;;;15.32;9.20;;;922.50;1715.20;;;;;;6245529;23;20452;-85
2022/07/04 11:37:33;;;;;;;13.02;10.23;;;922.00;1664.00;;;;;;6245289;23;20005;-86
2022/07/04 11:45:52;;;;;;;17.98;7.15;;;922.40;1664.00;;;;;;6246458;23;20066;-84
2022/07/04 11:48:26;;;;;;;16.30;8.07;;;947.20;1587.20;;;;;;6245286;23;20000;-83
2022/07/04 11:50:53;;;;;;;14.55;9.50;;;947.60;1612.80;;;;;;6245308;23;20005;-84
2022/07/04 11:53:19;;;;;;;15.70;13.23;;;947.80;1612.80;;;;;;6245033;23;20083;-85
2022/07/04 11:55:57;;;;;;;15.13;7.68;;;948.10;1587.20;;;;;;6245443;23;20004;-84
2022/07/04 11:58:23;;;;;;;10.10;6.60;;;972.80;1612.80;;;;;;6245141;23;20001;-84
2022/07/04 12:00:50;;;;;;;14.10;7.88;;;973.10;1612.80;;;;;;6244995;23;20430;-88
2022/07/04 12:03:16;;;;;;;13.30;10.35;;;973.10;1561.60;;;;;;6245875;23;20004;-89
2022/07/04 12:05:43;;;;;;;13.02;7.10;;;972.90;1587.20;;;;;;6246719;23;20012;-86
2022/07/04 12:08:10;;;;;;;8.77;6.45;;;947.90;1587.20;;;;;;6246382;23;20000;-84
2022/07/04 12:10:36;;;;;;;10.60;7.28;;;947.30;1561.60;;;;;;6246670;23;20000;-84
2022/07/04 12:13:16;;;;;;;10.07;7.45;;;947.40;1561.60;;;;;;6246758;23;20444;-85
2022/07/04 12:15:46;;;;;;;11.68;6.47;;;947.40;1561.60;;;;;;6246684;23;20004;-86
2022/07/04 12:18:31;;;;;;;14.63;8.82;;;947.50;1561.60;;;;;;6246696;23;20004;-85
2022/07/04 12:21:17;;;;;;;11.55;7.32;;;947.50;1638.40;;;;;;6246506;23;20087;-84
2022/07/04 12:23:51;;;;;;;10.00;7.82;;;947.40;1612.80;;;;;;6245495;23;20016;-84